createdAt,value
2023-12-30T00:00:03.000Z,10.4
2023-12-30T00:01:22.417Z,10.5
2023-12-30T00:02:35.000Z,10.4
2023-12-30T00:03:53.821Z,10.5
2023-12-30T00:05:07.000Z,10.6
2023-12-30T00:06:26.208Z,10.6
2023-12-30T00:06:29.000Z,10.7
2023-12-30T00:07:39.000Z,10.7
2023-12-30T00:10:14.791Z,10.8
2023-12-30T00:11:30.984Z,10.8
2023-12-30T00:11:34.000Z,11
2023-12-30T00:12:44.000Z,10.9
2023-12-30T00:15:16.000Z,11
2023-12-30T00:16:35.760Z,10.9
2023-12-30T00:17:48.000Z,10.9
2023-12-30T00:19:08.148Z,10.9
2023-12-30T00:20:20.000Z,10.9
2023-12-30T00:21:39.552Z,11
2023-12-30T00:22:52.000Z,11
2023-12-30T00:24:08.000Z,11.1
2023-12-30T00:25:25.000Z,11.1
2023-12-30T00:26:44.328Z,11.2
2023-12-30T00:27:57.000Z,11.2
2023-12-30T00:29:16.715Z,11.1
2023-12-30T00:30:32.909Z,11.1
2023-12-30T00:31:49.103Z,11
2023-12-30T00:33:05.297Z,11
2023-12-30T00:34:21.491Z,11.1
2023-12-30T00:35:34.000Z,11.1
2023-12-30T00:36:52.895Z,11.1
2023-12-30T00:38:06.000Z,11.1
2023-12-30T00:39:25.282Z,11.2
2023-12-30T00:40:38.000Z,11.2
2023-12-30T00:41:57.671Z,11.1
2023-12-30T00:42:01.000Z,11.2
2023-12-30T00:43:10.000Z,11.2
2023-12-30T00:45:46.253Z,11.2
2023-12-30T00:47:02.446Z,11.2
2023-12-30T00:48:18.640Z,11.2
2023-12-30T00:49:34.834Z,11.2
2023-12-30T00:50:48.000Z,11.2
2023-12-30T00:52:07.223Z,11.2
2023-12-30T00:53:19.000Z,11.1
2023-12-30T00:54:35.000Z,11.2
2023-12-30T00:55:51.000Z,11.2
2023-12-30T00:57:11.265Z,11.1
2023-12-30T00:58:27.208Z,11.1
2023-12-30T00:59:43.402Z,11.1
2023-12-30T01:00:56.000Z,11.1
2023-12-30T01:02:15.790Z,11.1
2023-12-30T01:03:28.000Z,11.1
2023-12-30T01:04:48.177Z,11.1
2023-12-30T01:06:01.000Z,11.1
2023-12-30T01:07:20.565Z,11
2023-12-30T01:08:36.759Z,11
2023-12-30T01:09:51.970Z,11
2023-12-30T01:11:08.163Z,11
2023-12-30T01:12:24.357Z,11
2023-12-30T01:13:40.551Z,10.9
2023-12-30T01:14:56.745Z,11
2023-12-30T01:16:09.000Z,11
2023-12-30T01:17:29.133Z,11
2023-12-30T01:18:42.000Z,11
2023-12-30T01:20:01.521Z,11.1
2023-12-30T01:21:17.715Z,11
2023-12-30T01:22:33.909Z,11.1
2023-12-30T01:23:50.103Z,11.1
2023-12-30T01:25:06.297Z,11.1
2023-12-30T01:26:21.507Z,11.1
2023-12-30T01:27:37.701Z,11.1
2023-12-30T01:28:50.000Z,11
2023-12-30T01:30:10.089Z,11
2023-12-30T01:31:23.000Z,11
2023-12-30T01:32:42.477Z,11
2023-12-30T01:33:58.671Z,11
2023-12-30T01:35:14.864Z,11
2023-12-30T01:36:31.058Z,11
2023-12-30T01:37:47.252Z,11
2023-12-30T01:39:03.446Z,11
2023-12-30T01:40:19.640Z,11
2023-12-30T01:41:32.000Z,11
2023-12-30T01:42:51.044Z,11
2023-12-30T01:44:04.000Z,11.1
2023-12-30T01:45:23.431Z,11.1
2023-12-30T01:46:39.625Z,11
2023-12-30T01:47:55.820Z,11.1
2023-12-30T01:49:12.014Z,11.1
2023-12-30T01:50:28.207Z,11.2
2023-12-30T01:51:41.000Z,11.1
2023-12-30T01:53:00.595Z,11.2
2023-12-30T01:54:13.000Z,11.2
2023-12-30T01:55:29.000Z,11.2
2023-12-30T01:56:46.000Z,11.2
2023-12-30T01:58:05.371Z,11.2
2023-12-30T01:59:20.581Z,11.2
2023-12-30T02:00:36.776Z,11.2
2023-12-30T02:01:52.970Z,11.2
2023-12-30T02:03:09.164Z,11.3
2023-12-30T02:04:25.358Z,11.3
2023-12-30T02:05:41.551Z,11.2
2023-12-30T02:05:45.000Z,11.1
2023-12-30T02:06:54.000Z,11.2
2023-12-30T02:09:30.133Z,11.1
2023-12-30T02:10:46.327Z,11
2023-12-30T02:12:02.521Z,11
2023-12-30T02:13:18.715Z,11
2023-12-30T02:14:34.909Z,11
2023-12-30T02:15:50.119Z,11
2023-12-30T02:17:06.312Z,11
2023-12-30T02:18:22.506Z,10.9
2023-12-30T02:19:38.700Z,10.9
2023-12-30T02:20:54.895Z,10.9
2023-12-30T02:22:08.000Z,11
2023-12-30T02:23:27.283Z,11
2023-12-30T02:24:43.477Z,11
2023-12-30T02:25:59.670Z,11
2023-12-30T02:27:15.864Z,11
2023-12-30T02:28:32.058Z,11
2023-12-30T02:29:48.252Z,11
2023-12-30T02:31:04.447Z,11
2023-12-30T02:31:07.000Z,10.8
2023-12-30T02:32:19.657Z,10.9
2023-12-30T02:34:52.045Z,10.8
2023-12-30T02:36:08.238Z,10.8
2023-12-30T02:37:24.432Z,10.9
2023-12-30T02:37:27.000Z,10.9
2023-12-30T02:38:40.626Z,10.9
2023-12-30T02:41:13.014Z,10.9
2023-12-30T02:42:29.208Z,11
2023-12-30T02:43:45.401Z,10.9
2023-12-30T02:45:01.595Z,11
2023-12-30T02:46:17.789Z,10.9
2023-12-30T02:47:30.000Z,10.9
2023-12-30T02:48:49.194Z,10.9
2023-12-30T02:50:05.387Z,10.9
2023-12-30T02:51:21.580Z,10.9
2023-12-30T02:52:37.774Z,10.8
2023-12-30T02:53:53.969Z,10.7
2023-12-30T02:53:57.000Z,10.7
2023-12-30T02:55:10.163Z,10.7
2023-12-30T02:57:39.000Z,10.7
2023-12-30T02:58:58.744Z,10.7
2023-12-30T03:00:11.000Z,10.8
2023-12-30T03:01:31.132Z,10.8
2023-12-30T03:02:44.000Z,10.9
2023-12-30T03:04:03.521Z,10.9
2023-12-30T03:05:15.000Z,10.9
2023-12-30T03:06:34.925Z,10.9
2023-12-30T03:07:48.000Z,10.8
2023-12-30T03:09:07.312Z,10.9
2023-12-30T03:10:20.000Z,10.9
2023-12-30T03:11:39.700Z,10.9
2023-12-30T03:12:52.000Z,10.9
2023-12-30T03:14:12.087Z,10.9
2023-12-30T03:15:25.000Z,10.9
2023-12-30T03:16:44.475Z,10.8
2023-12-30T03:18:00.669Z,10.8
2023-12-30T03:19:16.863Z,10.8
2023-12-30T03:20:33.057Z,10.8
2023-12-30T03:21:48.267Z,10.8
2023-12-30T03:23:04.460Z,10.9
2023-12-30T03:24:20.654Z,10.9
2023-12-30T03:25:36.848Z,10.9
2023-12-30T03:26:53.043Z,10.9
2023-12-30T03:28:09.236Z,10.9
2023-12-30T03:29:25.430Z,10.9
2023-12-30T03:30:41.624Z,10.9
2023-12-30T03:31:57.818Z,11
2023-12-30T03:33:14.012Z,11.1
2023-12-30T03:34:30.205Z,11.1
2023-12-30T03:35:43.000Z,11.1
2023-12-30T03:37:02.594Z,11
2023-12-30T03:38:14.000Z,11
2023-12-30T03:39:33.998Z,11
2023-12-30T03:40:50.192Z,11
2023-12-30T03:42:06.385Z,10.9
2023-12-30T03:43:22.579Z,10.9
2023-12-30T03:44:38.773Z,11
2023-12-30T03:45:54.967Z,11
2023-12-30T03:47:11.160Z,10.9
2023-12-30T03:48:27.354Z,10.8
2023-12-30T03:49:43.548Z,10.8
2023-12-30T03:50:59.742Z,10.9
2023-12-30T03:52:15.936Z,11
2023-12-30T03:53:32.130Z,10.9
2023-12-30T03:53:34.000Z,10.8
2023-12-30T03:54:47.340Z,10.9
2023-12-30T03:57:19.727Z,10.9
2023-12-30T03:58:35.921Z,10.9
2023-12-30T03:59:52.116Z,11
2023-12-30T04:01:08.310Z,11.1
2023-12-30T04:02:23.525Z,11.1
2023-12-30T04:03:39.718Z,11.1
2023-12-30T04:04:55.912Z,11.2
2023-12-30T04:06:12.106Z,11.2
2023-12-30T04:07:28.299Z,11.2
2023-12-30T04:08:44.493Z,11.1
2023-12-30T04:10:00.687Z,11
2023-12-30T04:11:16.881Z,10.9
2023-12-30T04:12:33.075Z,10.9
2023-12-30T04:13:49.269Z,10.9
2023-12-30T04:15:05.462Z,10.8
2023-12-30T04:16:21.656Z,10.8
2023-12-30T04:17:37.850Z,10.8
2023-12-30T04:18:53.060Z,10.7
2023-12-30T04:20:09.254Z,10.7
2023-12-30T04:21:25.448Z,10.8
2023-12-30T04:22:41.642Z,10.8
2023-12-30T04:23:57.836Z,10.9
2023-12-30T04:25:14.030Z,10.9
2023-12-30T04:26:27.000Z,10.9
2023-12-30T04:27:46.417Z,10.9
2023-12-30T04:29:02.611Z,10.8
2023-12-30T04:30:18.805Z,10.9
2023-12-30T04:31:34.999Z,11
2023-12-30T04:32:51.193Z,11
2023-12-30T04:34:07.387Z,11
2023-12-30T04:35:22.598Z,11
2023-12-30T04:36:38.791Z,11
2023-12-30T04:37:54.985Z,11
2023-12-30T04:39:11.179Z,11
2023-12-30T04:40:27.372Z,10.9
2023-12-30T04:41:43.566Z,10.9
2023-12-30T04:42:59.760Z,10.9
2023-12-30T04:44:15.954Z,10.9
2023-12-30T04:45:32.147Z,10.9
2023-12-30T04:46:48.341Z,10.9
2023-12-30T04:48:04.535Z,10.9
2023-12-30T04:49:20.729Z,10.9
2023-12-30T04:50:36.923Z,10.8
2023-12-30T04:51:52.132Z,10.8
2023-12-30T04:53:08.326Z,10.9
2023-12-30T04:54:24.520Z,10.9
2023-12-30T04:55:40.715Z,10.9
2023-12-30T04:56:56.909Z,11
2023-12-30T04:58:13.103Z,11
2023-12-30T04:59:29.297Z,11
2023-12-30T05:00:45.490Z,11
2023-12-30T05:02:01.684Z,11
2023-12-30T05:03:17.878Z,10.9
2023-12-30T05:04:34.072Z,10.8
2023-12-30T05:05:50.266Z,10.8
2023-12-30T05:07:03.000Z,10.9
2023-12-30T05:08:21.671Z,10.8
2023-12-30T05:09:37.864Z,10.9
2023-12-30T05:10:54.058Z,10.9
2023-12-30T05:12:10.252Z,11.1
2023-12-30T05:13:26.445Z,11.1
2023-12-30T05:14:42.639Z,11.2
2023-12-30T05:15:58.833Z,11.2
2023-12-30T05:17:15.027Z,11.2
2023-12-30T05:18:31.220Z,11.2
2023-12-30T05:19:47.414Z,11.3
2023-12-30T05:21:03.608Z,11.3
2023-12-30T05:22:19.802Z,11.3
2023-12-30T05:23:35.995Z,11.2
2023-12-30T05:24:51.205Z,11.2
2023-12-30T05:26:07.399Z,11.3
2023-12-30T05:27:23.593Z,11.3
2023-12-30T05:28:39.788Z,11.4
2023-12-30T05:29:55.982Z,11.5
2023-12-30T05:29:59.000Z,11.4
2023-12-30T05:31:12.175Z,11.4
2023-12-30T05:33:44.563Z,11.5
2023-12-30T05:34:57.000Z,11.4
2023-12-30T05:36:16.950Z,11.4
2023-12-30T05:37:33.144Z,11.4
2023-12-30T05:38:49.339Z,11.3
2023-12-30T05:40:02.000Z,11.2
2023-12-30T05:41:20.743Z,11.3
2023-12-30T05:42:33.000Z,11.2
2023-12-30T05:43:53.130Z,11.3
2023-12-30T05:45:06.000Z,11.3
2023-12-30T05:46:25.518Z,11.3
2023-12-30T05:47:41.712Z,11.2
2023-12-30T05:48:57.906Z,11.2
2023-12-30T05:50:14.100Z,11.3
2023-12-30T05:51:30.293Z,11.2
2023-12-30T05:52:46.487Z,11.1
2023-12-30T05:54:02.681Z,11.1
2023-12-30T05:55:18.875Z,11.1
2023-12-30T05:56:35.068Z,11.1
2023-12-30T05:57:47.000Z,10.9
2023-12-30T05:59:06.472Z,10.9
2023-12-30T06:00:22.666Z,10.9
2023-12-30T06:01:38.861Z,10.9
2023-12-30T06:02:55.055Z,10.8
2023-12-30T06:04:11.248Z,10.8
2023-12-30T06:04:14.000Z,10.8
2023-12-30T06:05:27.442Z,10.8
2023-12-30T06:07:59.830Z,10.7
2023-12-30T06:09:16.023Z,10.7
2023-12-30T06:10:32.217Z,10.7
2023-12-30T06:11:48.412Z,10.7
2023-12-30T06:13:04.606Z,10.7
2023-12-30T06:14:19.816Z,10.6
2023-12-30T06:15:36.010Z,10.5
2023-12-30T06:16:52.203Z,10.6
2023-12-30T06:18:08.397Z,10.6
2023-12-30T06:19:24.591Z,10.6
2023-12-30T06:20:40.785Z,10.6
2023-12-30T06:21:56.978Z,10.5
2023-12-30T06:23:13.172Z,10.5
2023-12-30T06:24:29.366Z,10.4
2023-12-30T06:25:45.560Z,10.4
2023-12-30T06:27:01.754Z,10.4
2023-12-30T06:28:17.948Z,10.3
2023-12-30T06:29:34.141Z,10.3
2023-12-30T06:30:49.351Z,10.3
2023-12-30T06:32:05.545Z,10.3
2023-12-30T06:33:18.000Z,10.3
2023-12-30T06:34:37.933Z,10.3
2023-12-30T06:35:51.000Z,10.4
2023-12-30T06:37:10.321Z,10.4
2023-12-30T06:38:26.515Z,10.4
2023-12-30T06:38:29.000Z,10.5
2023-12-30T06:39:42.708Z,10.4
2023-12-30T06:42:15.096Z,10.5
2023-12-30T06:43:31.290Z,10.6
2023-12-30T06:44:47.485Z,10.7
2023-12-30T06:46:00.000Z,10.7
2023-12-30T06:47:18.889Z,10.8
2023-12-30T06:48:32.000Z,10.7
2023-12-30T06:49:51.276Z,10.8
2023-12-30T06:51:07.470Z,10.8
2023-12-30T06:52:23.663Z,10.8
2023-12-30T06:53:39.857Z,10.9
2023-12-30T06:54:56.051Z,10.9
2023-12-30T06:56:12.245Z,10.9
2023-12-30T06:57:28.438Z,10.9
2023-12-30T06:58:44.632Z,10.9
2023-12-30T07:00:00.826Z,11
2023-12-30T07:01:14.000Z,10.9
2023-12-30T07:02:33.214Z,10.8
2023-12-30T07:03:48.423Z,10.8
2023-12-30T07:05:04.617Z,10.8
2023-12-30T07:06:20.811Z,10.8
2023-12-30T07:07:37.006Z,10.8
2023-12-30T07:08:53.200Z,10.9
2023-12-30T07:10:09.393Z,11
2023-12-30T07:11:25.587Z,11
2023-12-30T07:12:41.781Z,10.9
2023-12-30T07:13:57.975Z,11
2023-12-30T07:15:14.168Z,11
2023-12-30T07:16:30.362Z,11
2023-12-30T07:17:46.557Z,11
2023-12-30T07:19:02.751Z,11.1
2023-12-30T07:20:17.962Z,11.1
2023-12-30T07:21:34.155Z,11.1
2023-12-30T07:22:50.348Z,11.1
2023-12-30T07:24:06.542Z,11.1
2023-12-30T07:25:22.736Z,11.1
2023-12-30T07:26:38.931Z,11.1
2023-12-30T07:27:55.126Z,11.2
2023-12-30T07:29:11.322Z,11.2
2023-12-30T07:30:27.517Z,11.2
2023-12-30T07:31:43.711Z,11.1
2023-12-30T07:32:59.907Z,11.1
2023-12-30T07:34:16.101Z,11.1
2023-12-30T07:35:32.297Z,11.2
2023-12-30T07:35:34.000Z,11.2
2023-12-30T07:36:44.000Z,11.2
2023-12-30T07:39:19.898Z,11.2
2023-12-30T07:40:36.094Z,11.1
2023-12-30T07:41:52.289Z,11.1
2023-12-30T07:43:08.485Z,11.1
2023-12-30T07:44:24.680Z,11.1
2023-12-30T07:45:40.876Z,11.1
2023-12-30T07:46:57.070Z,11.1
2023-12-30T07:48:13.266Z,11
2023-12-30T07:49:26.000Z,11
2023-12-30T07:50:45.657Z,11
2023-12-30T07:51:58.000Z,11
2023-12-30T07:53:17.063Z,10.9
2023-12-30T07:54:30.000Z,10.9
2023-12-30T07:54:36.000Z,10.8
2023-12-30T07:55:49.454Z,10.8
2023-12-30T07:58:21.846Z,10.8
2023-12-30T07:59:38.041Z,10.8
2023-12-30T08:00:54.237Z,10.9
2023-12-30T08:02:07.000Z,10.9
2023-12-30T08:03:26.629Z,10.9
2023-12-30T08:04:42.825Z,10.9
2023-12-30T08:05:59.021Z,10.9
2023-12-30T08:07:15.216Z,10.9
2023-12-30T08:08:31.412Z,10.9
2023-12-30T08:09:46.624Z,11
2023-12-30T08:11:02.820Z,11
2023-12-30T08:12:19.016Z,11
2023-12-30T08:13:35.212Z,10.9
2023-12-30T08:14:48.000Z,10.9
2023-12-30T08:16:07.603Z,10.9
2023-12-30T08:17:19.000Z,10.8
2023-12-30T08:18:39.016Z,10.9
2023-12-30T08:19:52.000Z,10.9
2023-12-30T08:21:11.408Z,11
2023-12-30T08:22:27.603Z,10.9
2023-12-30T08:23:43.799Z,10.9
2023-12-30T08:24:59.995Z,10.9
2023-12-30T08:26:16.191Z,11
2023-12-30T08:27:32.386Z,10.9
2023-12-30T08:28:48.582Z,11
2023-12-30T08:30:01.000Z,11
2023-12-30T08:31:20.974Z,11
2023-12-30T08:32:37.170Z,11
2023-12-30T08:33:52.382Z,11
2023-12-30T08:35:08.576Z,11
2023-12-30T08:35:11.000Z,11
2023-12-30T08:36:24.773Z,11
2023-12-30T08:38:57.164Z,11
2023-12-30T08:40:10.000Z,11
2023-12-30T08:41:29.556Z,11
2023-12-30T08:42:45.751Z,11
2023-12-30T08:44:01.947Z,11.1
2023-12-30T08:45:18.143Z,11
2023-12-30T08:46:34.339Z,11.1
2023-12-30T08:47:50.534Z,11.1
2023-12-30T08:49:06.730Z,11.1
2023-12-30T08:50:21.942Z,11.2
2023-12-30T08:51:38.138Z,11.3
2023-12-30T08:52:51.000Z,11.2
2023-12-30T08:54:10.530Z,11.3
2023-12-30T08:55:26.725Z,11.3
2023-12-30T08:56:42.921Z,11.4
2023-12-30T08:57:59.117Z,11.4
2023-12-30T08:59:15.313Z,11.4
2023-12-30T09:00:31.508Z,11.4
2023-12-30T09:00:34.000Z,11.4
2023-12-30T09:01:47.704Z,11.4
2023-12-30T09:04:20.096Z,11.4
2023-12-30T09:05:36.291Z,11.4
2023-12-30T09:06:51.504Z,11.4
2023-12-30T09:08:04.000Z,11.5
2023-12-30T09:09:23.894Z,11.5
2023-12-30T09:10:40.090Z,11.6
2023-12-30T09:10:43.000Z,11.5
2023-12-30T09:11:56.286Z,11.5
2023-12-30T09:14:28.678Z,11.6
2023-12-30T09:15:44.873Z,11.6
2023-12-30T09:17:01.069Z,11.6
2023-12-30T09:18:17.265Z,11.7
2023-12-30T09:19:33.461Z,11.7
2023-12-30T09:20:49.656Z,11.7
2023-12-30T09:22:05.853Z,11.7
2023-12-30T09:23:21.064Z,11.6
2023-12-30T09:24:37.260Z,11.7
2023-12-30T09:25:53.456Z,11.6
2023-12-30T09:27:09.652Z,11.6
2023-12-30T09:28:25.847Z,11.7
2023-12-30T09:29:42.043Z,11.8
2023-12-30T09:30:58.239Z,11.8
2023-12-30T09:32:14.435Z,11.8
2023-12-30T09:33:30.630Z,11.8
2023-12-30T09:34:46.827Z,11.8
2023-12-30T09:36:03.022Z,11.8
2023-12-30T09:37:19.218Z,11.7
2023-12-30T09:38:35.414Z,11.8
2023-12-30T09:38:37.000Z,11.8
2023-12-30T09:39:50.626Z,11.8
2023-12-30T09:42:23.016Z,11.7
2023-12-30T09:43:39.212Z,11.8
2023-12-30T09:44:55.408Z,11.8
2023-12-30T09:46:11.603Z,11.8
2023-12-30T09:47:27.800Z,11.9
2023-12-30T09:48:43.995Z,12
2023-12-30T09:50:00.191Z,11.9
2023-12-30T09:51:13.000Z,12
2023-12-30T09:52:32.583Z,12
2023-12-30T09:52:35.000Z,12.1
2023-12-30T09:53:48.778Z,12.1
2023-12-30T09:56:20.186Z,12.2
2023-12-30T09:57:36.382Z,12.3
2023-12-30T09:58:49.000Z,12.4
2023-12-30T10:00:08.774Z,12.4
2023-12-30T10:01:24.969Z,12.4
2023-12-30T10:02:41.166Z,12.4
2023-12-30T10:03:57.361Z,12.5
2023-12-30T10:05:13.557Z,12.5
2023-12-30T10:06:29.753Z,12.6
2023-12-30T10:07:45.949Z,12.6
2023-12-30T10:09:02.144Z,12.7
2023-12-30T10:10:18.341Z,12.7
2023-12-30T10:11:34.536Z,12.8
2023-12-30T10:12:49.748Z,12.9
2023-12-30T10:14:05.943Z,12.9
2023-12-30T10:15:22.139Z,12.9
2023-12-30T10:16:38.335Z,13
2023-12-30T10:17:54.531Z,13.1
2023-12-30T10:19:10.726Z,13.2
2023-12-30T10:20:26.923Z,13.2
2023-12-30T10:21:43.118Z,13.3
2023-12-30T10:22:59.314Z,13.3
2023-12-30T10:24:15.509Z,13.4
2023-12-30T10:25:31.706Z,13.5
2023-12-30T10:26:47.901Z,13.5
2023-12-30T10:28:04.097Z,13.6
2023-12-30T10:29:19.308Z,13.7
2023-12-30T10:30:35.504Z,13.8
2023-12-30T10:31:48.000Z,13.8
2023-12-30T10:33:07.896Z,13.8
2023-12-30T10:34:21.000Z,13.8
2023-12-30T10:35:40.287Z,13.9
2023-12-30T10:36:53.000Z,13.9
2023-12-30T10:38:12.678Z,13.8
2023-12-30T10:38:15.000Z,13.8
2023-12-30T10:39:25.000Z,13.7
2023-12-30T10:42:01.265Z,13.8
2023-12-30T10:43:17.461Z,13.8
2023-12-30T10:43:19.000Z,13.7
2023-12-30T10:44:30.000Z,13.8
2023-12-30T10:47:02.000Z,13.8
2023-12-30T10:48:21.260Z,13.9
2023-12-30T10:49:37.455Z,13.8
2023-12-30T10:50:53.651Z,13.6
2023-12-30T10:52:09.846Z,13.6
2023-12-30T10:53:26.042Z,13.7
2023-12-30T10:54:42.238Z,13.7
2023-12-30T10:55:58.434Z,13.7
2023-12-30T10:57:14.629Z,13.7
2023-12-30T10:58:30.825Z,13.8
2023-12-30T10:58:34.000Z,13.8
2023-12-30T10:59:44.000Z,13.9
2023-12-30T11:02:18.427Z,13.7
2023-12-30T11:03:34.624Z,13.8
2023-12-30T11:04:50.819Z,13.9
2023-12-30T11:06:07.015Z,13.9
2023-12-30T11:07:23.210Z,13.9
2023-12-30T11:08:39.406Z,13.9
2023-12-30T11:09:52.000Z,13.9
2023-12-30T11:11:11.797Z,14
2023-12-30T11:12:24.000Z,14.2
2023-12-30T11:13:44.188Z,14.2
2023-12-30T11:14:57.000Z,14
2023-12-30T11:16:16.580Z,14
2023-12-30T11:17:32.775Z,14
2023-12-30T11:18:47.987Z,14
2023-12-30T11:20:04.183Z,13.9
2023-12-30T11:21:20.378Z,14
2023-12-30T11:22:33.000Z,14.1
2023-12-30T11:23:52.770Z,14.1
2023-12-30T11:25:05.000Z,14.2
2023-12-30T11:26:25.161Z,14
2023-12-30T11:27:41.356Z,14
2023-12-30T11:28:57.552Z,14
2023-12-30T11:30:10.000Z,14
2023-12-30T11:31:29.943Z,13.9
2023-12-30T11:32:43.000Z,13.9
2023-12-30T11:34:02.335Z,13.9
2023-12-30T11:35:14.000Z,13.9
2023-12-30T11:36:33.742Z,13.8
2023-12-30T11:37:46.000Z,13.7
2023-12-30T11:39:06.383Z,13.7
2023-12-30T11:40:22.329Z,13.8
2023-12-30T11:41:38.525Z,13.6
2023-12-30T11:42:54.720Z,13.6
2023-12-30T11:44:10.916Z,13.7
2023-12-30T11:45:27.111Z,13.6
2023-12-30T11:46:43.307Z,13.6
2023-12-30T11:47:56.000Z,13.7
2023-12-30T11:49:15.698Z,13.7
2023-12-30T11:50:28.000Z,13.7
2023-12-30T11:50:34.000Z,13.7
2023-12-30T11:51:47.105Z,13.6
2023-12-30T11:54:19.497Z,13.6
2023-12-30T11:55:35.692Z,13.6
2023-12-30T11:56:51.888Z,13.6
2023-12-30T11:58:08.083Z,13.6
2023-12-30T11:59:24.279Z,13.6
2023-12-30T12:00:40.475Z,13.6
2023-12-30T12:01:56.671Z,13.6
2023-12-30T12:03:09.000Z,13.5
2023-12-30T12:04:29.062Z,13.4
2023-12-30T12:05:42.000Z,13.5
2023-12-30T12:07:01.453Z,13.5
2023-12-30T12:08:13.000Z,13.5
2023-12-30T12:09:32.861Z,13.4
2023-12-30T12:10:49.056Z,13.5
2023-12-30T12:12:05.252Z,13.6
2023-12-30T12:13:21.447Z,13.6
2023-12-30T12:14:37.643Z,13.7
2023-12-30T12:15:53.838Z,13.7
2023-12-30T12:17:10.034Z,13.6
2023-12-30T12:18:26.230Z,13.6
2023-12-30T12:19:42.426Z,13.6
2023-12-30T12:20:58.621Z,13.6
2023-12-30T12:22:14.817Z,13.6
2023-12-30T12:23:28.000Z,13.5
2023-12-30T12:24:46.225Z,13.5
2023-12-30T12:25:59.000Z,13.5
2023-12-30T12:27:18.617Z,13.4
2023-12-30T12:28:31.000Z,13.5
2023-12-30T12:29:51.008Z,13.5
2023-12-30T12:31:07.203Z,13.5
2023-12-30T12:32:22.421Z,13.4
2023-12-30T12:33:38.617Z,13.5
2023-12-30T12:34:54.813Z,13.5
2023-12-30T12:36:08.000Z,13.6
2023-12-30T12:37:27.204Z,13.5
2023-12-30T12:38:43.399Z,13.5
2023-12-30T12:39:56.000Z,13.5
2023-12-30T12:41:12.000Z,13.5
2023-12-30T12:42:31.987Z,13.5
2023-12-30T12:43:48.182Z,13.5
2023-12-30T12:45:04.378Z,13.6
2023-12-30T12:46:20.574Z,13.6
2023-12-30T12:47:36.770Z,13.6
2023-12-30T12:48:48.000Z,13.5
2023-12-30T12:50:05.000Z,13.5
2023-12-30T12:51:21.000Z,13.5
2023-12-30T12:52:40.569Z,13.4
2023-12-30T12:53:53.000Z,13.5
2023-12-30T12:55:12.960Z,13.5
2023-12-30T12:56:26.000Z,13.4
2023-12-30T12:57:45.351Z,13.5
2023-12-30T12:58:58.000Z,13.5
2023-12-30T13:00:17.743Z,13.5
2023-12-30T13:01:33.938Z,13.5
2023-12-30T13:02:50.134Z,13.5
2023-12-30T13:04:03.000Z,13.5
2023-12-30T13:05:21.541Z,13.4
2023-12-30T13:06:37.736Z,13.4
2023-12-30T13:07:53.932Z,13.4
2023-12-30T13:09:07.000Z,13.4
2023-12-30T13:10:26.324Z,13.4
2023-12-30T13:11:42.519Z,13.4
2023-12-30T13:12:58.715Z,13.4
2023-12-30T13:14:14.910Z,13.4
2023-12-30T13:14:18.000Z,13.6
2023-12-30T13:15:31.107Z,13.5
2023-12-30T13:18:03.498Z,13.6
2023-12-30T13:19:16.000Z,13.6
2023-12-30T13:20:35.889Z,13.5
2023-12-30T13:21:48.000Z,13.5
2023-12-30T13:23:07.297Z,13.5
2023-12-30T13:24:23.492Z,13.4
2023-12-30T13:25:39.688Z,13.4
2023-12-30T13:26:52.000Z,13.3
2023-12-30T13:28:12.080Z,13.3
2023-12-30T13:29:25.000Z,13.3
2023-12-30T13:30:44.471Z,13.2
2023-12-30T13:31:57.000Z,13.2
2023-12-30T13:33:16.862Z,13.2
2023-12-30T13:34:33.058Z,13.2
2023-12-30T13:35:49.254Z,13.2
2023-12-30T13:37:05.449Z,13.2
2023-12-30T13:38:20.661Z,13.3
2023-12-30T13:39:33.000Z,13.3
2023-12-30T13:40:53.053Z,13.2
2023-12-30T13:42:09.248Z,13.1
2023-12-30T13:43:22.000Z,13.2
2023-12-30T13:44:41.640Z,13.2
2023-12-30T13:45:57.836Z,13.2
2023-12-30T13:47:14.031Z,13.2
2023-12-30T13:48:30.227Z,13.2
2023-12-30T13:49:46.423Z,13.3
2023-12-30T13:51:02.619Z,13.3
2023-12-30T13:52:18.814Z,13.2
2023-12-30T13:53:35.010Z,13.1
2023-12-30T13:54:50.222Z,13
2023-12-30T13:56:06.418Z,13.1
2023-12-30T13:57:22.613Z,13
2023-12-30T13:58:38.810Z,12.9
2023-12-30T13:59:52.000Z,12.9
2023-12-30T14:01:11.201Z,12.8
2023-12-30T14:02:27.396Z,12.9
2023-12-30T14:03:43.592Z,13
2023-12-30T14:04:59.788Z,13
2023-12-30T14:06:15.984Z,13
2023-12-30T14:07:32.179Z,13
2023-12-30T14:08:48.375Z,13
2023-12-30T14:10:04.571Z,13
2023-12-30T14:11:19.783Z,13
2023-12-30T14:12:35.978Z,13
2023-12-30T14:13:52.175Z,13
2023-12-30T14:15:08.370Z,13
2023-12-30T14:16:24.566Z,12.9
2023-12-30T14:17:40.761Z,12.9
2023-12-30T14:17:43.000Z,12.8
2023-12-30T14:18:56.958Z,12.8
2023-12-30T14:21:29.349Z,12.7
2023-12-30T14:22:42.000Z,12.6
2023-12-30T14:24:01.741Z,12.6
2023-12-30T14:25:17.936Z,12.6
2023-12-30T14:26:34.132Z,12.6
2023-12-30T14:27:49.343Z,12.5
2023-12-30T14:29:05.540Z,12.5
2023-12-30T14:30:21.735Z,12.5
2023-12-30T14:31:37.932Z,12.5
2023-12-30T14:32:54.127Z,12.4
2023-12-30T14:34:10.324Z,12.4
2023-12-30T14:35:26.520Z,12.4
2023-12-30T14:36:42.717Z,12.4
2023-12-30T14:37:58.913Z,12.3
2023-12-30T14:39:15.111Z,12.4
2023-12-30T14:40:31.306Z,12.4
2023-12-30T14:41:47.503Z,12.3
2023-12-30T14:43:03.698Z,12.5
2023-12-30T14:44:18.911Z,12.5
2023-12-30T14:45:35.107Z,12.5
2023-12-30T14:46:51.303Z,12.6
2023-12-30T14:48:07.499Z,12.7
2023-12-30T14:49:23.695Z,12.7
2023-12-30T14:50:39.890Z,12.7
2023-12-30T14:51:56.086Z,12.6
2023-12-30T14:53:12.282Z,12.6
2023-12-30T14:54:28.478Z,12.6
2023-12-30T14:55:44.675Z,12.5
2023-12-30T14:57:00.871Z,12.5
2023-12-30T14:58:17.066Z,12.5
2023-12-30T14:59:33.263Z,12.5
2023-12-30T15:00:48.475Z,12.5
2023-12-30T15:02:04.671Z,12.4
2023-12-30T15:03:20.867Z,12.4
2023-12-30T15:04:37.063Z,12.4
2023-12-30T15:05:53.259Z,12.3
2023-12-30T15:07:09.455Z,12.2
2023-12-30T15:08:25.650Z,12.2
2023-12-30T15:09:41.847Z,12.1
2023-12-30T15:10:58.042Z,12.1
2023-12-30T15:12:14.239Z,12.1
2023-12-30T15:13:30.435Z,12.1
2023-12-30T15:14:46.631Z,12.1
2023-12-30T15:16:02.826Z,12.1
2023-12-30T15:17:18.039Z,12
2023-12-30T15:18:34.235Z,11.9
2023-12-30T15:19:50.431Z,11.9
2023-12-30T15:21:06.628Z,11.9
2023-12-30T15:22:22.824Z,11.8
2023-12-30T15:23:39.020Z,11.8
2023-12-30T15:24:55.216Z,11.8
2023-12-30T15:26:11.412Z,11.7
2023-12-30T15:27:27.608Z,11.6
2023-12-30T15:28:43.804Z,11.6
2023-12-30T15:30:00.000Z,11.5
2023-12-30T15:31:16.195Z,11.4
2023-12-30T15:32:32.391Z,11.4
2023-12-30T15:33:47.604Z,11.4
2023-12-30T15:35:03.800Z,11.4
2023-12-30T15:36:19.997Z,11.4
2023-12-30T15:37:36.193Z,11.4
2023-12-30T15:38:52.389Z,11.4
2023-12-30T15:40:08.586Z,11.4
2023-12-30T15:41:24.782Z,11.4
2023-12-30T15:42:40.978Z,11.3
2023-12-30T15:43:57.174Z,11.3
2023-12-30T15:45:13.371Z,11.2
2023-12-30T15:46:29.566Z,11.1
2023-12-30T15:47:45.763Z,11.1
2023-12-30T15:49:01.958Z,11.1
2023-12-30T15:50:17.171Z,11
2023-12-30T15:51:33.367Z,11
2023-12-30T15:52:49.563Z,11
2023-12-30T15:54:05.758Z,11
2023-12-30T15:54:08.000Z,11
2023-12-30T15:55:21.955Z,11
2023-12-30T15:57:54.347Z,10.9
2023-12-30T15:59:10.543Z,11
2023-12-30T16:00:26.739Z,11
2023-12-30T16:01:42.934Z,11
2023-12-30T16:02:59.130Z,11
2023-12-30T16:04:15.327Z,11
2023-12-30T16:05:31.523Z,11
2023-12-30T16:06:46.735Z,10.9
2023-12-30T16:08:02.932Z,10.9
2023-12-30T16:09:19.128Z,11
2023-12-30T16:10:35.324Z,11
2023-12-30T16:11:51.520Z,11
2023-12-30T16:13:07.716Z,10.9
2023-12-30T16:14:23.911Z,11
2023-12-30T16:15:40.108Z,10.9
2023-12-30T16:16:56.303Z,10.9
2023-12-30T16:18:12.500Z,10.8
2023-12-30T16:19:28.696Z,10.8
2023-12-30T16:20:44.892Z,10.9
2023-12-30T16:22:01.087Z,10.9
2023-12-30T16:23:16.300Z,10.9
2023-12-30T16:24:32.496Z,10.9
2023-12-30T16:25:48.692Z,10.8
2023-12-30T16:27:04.889Z,10.8
2023-12-30T16:28:21.085Z,10.8
2023-12-30T16:29:37.280Z,10.8
2023-12-30T16:30:53.476Z,10.7
2023-12-30T16:32:09.673Z,10.7
2023-12-30T16:33:25.869Z,10.7
2023-12-30T16:34:42.064Z,10.7
2023-12-30T16:35:58.261Z,10.7
2023-12-30T16:37:14.456Z,10.6
2023-12-30T16:38:30.652Z,10.7
2023-12-30T16:39:45.864Z,10.7
2023-12-30T16:41:02.061Z,10.7
2023-12-30T16:42:18.257Z,10.6
2023-12-30T16:43:34.453Z,10.6
2023-12-30T16:44:50.649Z,10.6
2023-12-30T16:46:06.845Z,10.6
2023-12-30T16:47:22.062Z,10.7
2023-12-30T16:48:38.259Z,10.6
2023-12-30T16:49:54.455Z,10.6
2023-12-30T16:51:10.651Z,10.6
2023-12-30T16:52:26.848Z,10.5
2023-12-30T16:53:43.044Z,10.5
2023-12-30T16:54:59.240Z,10.5
2023-12-30T16:56:15.436Z,10.5
2023-12-30T16:57:31.630Z,10.5
2023-12-30T16:58:47.823Z,10.5
2023-12-30T17:00:04.017Z,10.4
2023-12-30T17:01:20.211Z,10.4
2023-12-30T17:02:36.405Z,10.5
2023-12-30T17:02:38.000Z,10.5